createdAt,value
2022-08-25T06:33:18.565Z,6.75
2022-08-25T06:38:26.192Z,7.07
2022-08-25T06:43:33.200Z,6.70
2022-08-25T06:48:41.422Z,6.80
2022-08-25T06:53:44.850Z,7.25
2022-08-25T06:58:48.020Z,7.07
2022-08-25T07:03:52.564Z,7.18
2022-08-25T07:08:58.457Z,7.57
2022-08-25T07:14:06.205Z,7.65
2022-08-25T07:19:11.995Z,7.43
2022-08-25T07:24:22.570Z,8.03
2022-08-25T07:29:32.533Z,7.68
2022-08-25T07:34:54.846Z,7.10
2022-08-25T07:39:59.410Z,7.07
2022-08-25T07:45:11.920Z,7.18
2022-08-25T07:50:18.989Z,7.57
2022-08-25T07:55:27.558Z,7.97
2022-08-25T08:00:37.033Z,8.63
2022-08-25T08:05:40.771Z,9.20
2022-08-25T08:11:04.470Z,8.93
2022-08-25T08:16:10.749Z,9.95
2022-08-25T08:21:20.052Z,9.98
2022-08-25T08:26:36.324Z,10.38
2022-08-25T08:31:49.943Z,11.57
2022-08-25T08:36:57.946Z,11.48
2022-08-25T08:42:19.627Z,12.18
2022-08-25T08:47:39.251Z,12.00
2022-08-25T08:52:48.814Z,12.57
2022-08-25T08:57:55.879Z,13.05
2022-08-25T09:03:12.173Z,12.80
2022-08-25T09:08:20.545Z,13.32
2022-08-25T09:13:41.910Z,14.88
2022-08-25T09:18:55.591Z,13.77
2022-08-25T09:24:09.628Z,13.70
2022-08-25T09:29:17.633Z,13.38
2022-08-25T09:34:31.148Z,14.03
2022-08-25T09:39:33.542Z,14.73
2022-08-25T09:44:43.569Z,14.47
2022-08-25T09:50:00.353Z,14.23
2022-08-25T09:55:08.373Z,14.68
2022-08-25T10:00:20.045Z,16.00
2022-08-25T10:05:28.520Z,15.43
2022-08-25T10:10:32.874Z,15.00
2022-08-25T10:15:40.626Z,15.33
2022-08-25T10:20:44.516Z,14.20
2022-08-25T10:25:57.900Z,13.70
2022-08-25T10:31:15.140Z,12.93
2022-08-25T10:36:21.237Z,13.43
2022-08-25T10:41:36.016Z,13.77
2022-08-25T10:46:57.671Z,11.33
2022-08-25T10:52:05.347Z,11.00
2022-08-25T10:57:13.370Z,11.00
2022-08-25T11:02:20.160Z,10.90
2022-08-25T11:07:27.550Z,11.10
2022-08-25T11:12:32.585Z,10.70
2022-08-25T11:17:39.784Z,10.10
2022-08-25T11:22:50.356Z,11.30
2022-08-25T11:28:02.809Z,11.00
2022-08-25T11:33:14.663Z,10.87
2022-08-25T11:38:38.255Z,11.63
2022-08-25T11:43:46.001Z,13.90
2022-08-25T11:48:51.450Z,10.65
2022-08-25T11:54:14.529Z,10.38
2022-08-25T11:59:43.131Z,11.00
2022-08-25T12:04:52.970Z,10.40
2022-08-25T12:10:04.019Z,10.18
2022-08-25T12:15:21.254Z,10.32
2022-08-25T12:20:43.913Z,10.57
2022-08-25T12:25:50.735Z,10.55
2022-08-25T12:30:57.022Z,14.10
2022-08-25T12:36:03.814Z,10.48
2022-08-25T12:41:19.213Z,11.15
2022-08-25T12:46:26.481Z,11.37
2022-08-25T12:51:41.063Z,11.40
2022-08-25T12:56:55.850Z,11.00
2022-08-25T13:02:19.864Z,11.27
2022-08-25T13:07:25.180Z,11.05
2022-08-25T13:12:55.583Z,11.40
2022-08-25T13:18:15.406Z,11.60
2022-08-25T13:23:25.146Z,12.50
2022-08-25T13:28:40.670Z,11.43
2022-08-25T13:34:05.374Z,11.80
2022-08-25T13:39:12.086Z,11.97
2022-08-25T13:44:15.975Z,11.75
2022-08-25T13:49:26.724Z,12.47
2022-08-25T13:54:31.982Z,12.05
2022-08-25T13:59:40.282Z,13.13
2022-08-25T14:04:51.606Z,14.13
2022-08-25T14:10:01.064Z,14.63
2022-08-25T14:15:20.153Z,15.00
2022-08-25T14:20:29.158Z,14.77
2022-08-25T14:25:31.946Z,13.77
2022-08-25T14:30:51.916Z,13.50
2022-08-25T14:35:58.257Z,14.88
2022-08-25T14:46:24.376Z,14.88
2022-08-25T14:51:28.052Z,14.70
2022-08-25T14:56:32.982Z,14.38
2022-08-25T15:01:36.180Z,15.85
2022-08-25T15:06:39.428Z,14.95
2022-08-25T15:11:51.937Z,14.85
2022-08-25T15:17:00.472Z,15.95
2022-08-25T15:22:05.679Z,15.05
2022-08-25T15:27:11.825Z,14.38
2022-08-25T15:32:22.501Z,14.27
2022-08-25T15:37:24.980Z,13.48
2022-08-25T15:42:28.358Z,13.15
2022-08-25T15:47:35.430Z,11.90
2022-08-25T15:52:46.433Z,10.38
2022-08-25T15:57:50.371Z,9.98
2022-08-25T16:02:54.838Z,9.05
2022-08-25T16:07:59.461Z,9.18
2022-08-25T16:13:05.173Z,8.38
2022-08-25T16:18:12.771Z,8.98
2022-08-25T16:23:18.076Z,8.65
2022-08-25T16:28:25.530Z,8.63
2022-08-25T16:33:30.143Z,8.38
2022-08-25T16:38:34.452Z,9.63
2022-08-25T16:43:37.286Z,9.20
2022-08-25T16:48:43.003Z,9.43
2022-08-25T16:54:07.865Z,9.50
2022-08-25T16:59:13.544Z,9.37
2022-08-25T17:04:16.882Z,9.67
2022-08-25T17:09:23.050Z,9.27
2022-08-25T17:14:26.472Z,9.93
2022-08-25T17:19:29.013Z,10.77
2022-08-25T17:24:34.543Z,10.97
2022-08-25T17:29:43.777Z,10.30
2022-08-25T17:34:48.479Z,11.10
2022-08-25T17:39:50.842Z,11.00
2022-08-25T17:45:06.032Z,11.47
2022-08-25T17:50:09.804Z,10.40
2022-08-25T17:55:12.484Z,10.10
2022-08-25T18:00:15.876Z,10.70
2022-08-25T18:05:21.307Z,10.90
2022-08-25T18:10:24.018Z,11.00
2022-08-25T18:15:29.552Z,11.13
2022-08-25T18:20:33.625Z,13.00
2022-08-25T18:25:41.925Z,12.63
2022-08-25T18:30:48.318Z,14.57
2022-08-25T18:35:54.379Z,14.40
2022-08-25T18:41:03.245Z,14.27
2022-08-25T18:46:08.187Z,16.13
2022-08-25T18:51:10.849Z,15.83
2022-08-25T18:56:20.253Z,16.97
2022-08-25T19:01:25.629Z,16.97
2022-08-25T19:06:31.305Z,17.57
2022-08-25T19:11:34.772Z,17.67
2022-08-25T19:16:40.453Z,17.97
2022-08-25T19:21:45.393Z,17.63
2022-08-25T19:26:54.700Z,17.03
2022-08-25T19:31:57.613Z,16.87
2022-08-25T19:37:11.554Z,15.40
2022-08-25T19:42:37.293Z,14.80
2022-08-25T19:47:43.281Z,14.53
2022-08-25T19:52:49.725Z,13.57
2022-08-25T19:57:54.866Z,13.23
2022-08-25T20:02:57.986Z,12.67
2022-08-25T20:08:08.098Z,13.03
2022-08-25T20:13:10.389Z,11.73
2022-08-25T20:18:17.577Z,12.53
2022-08-25T20:23:39.055Z,12.30
2022-08-25T20:28:43.729Z,13.13
2022-08-25T20:33:46.008Z,13.93
2022-08-25T20:38:48.513Z,13.47
2022-08-25T20:43:55.232Z,13.23
2022-08-25T20:49:00.646Z,13.63
2022-08-25T20:54:07.687Z,12.67
2022-08-25T20:59:12.224Z,14.03
2022-08-25T21:04:18.609Z,14.77
2022-08-25T21:09:30.798Z,14.40
2022-08-25T21:14:34.344Z,13.93
2022-08-25T21:19:36.754Z,13.77
2022-08-25T21:25:22.200Z,13.53
2022-08-25T21:30:26.812Z,14.37
2022-08-25T21:35:33.547Z,13.30
2022-08-25T21:40:38.641Z,12.43
2022-08-25T21:45:47.220Z,13.30
2022-08-25T21:51:09.074Z,11.90
2022-08-25T21:56:18.076Z,11.83
2022-08-25T22:01:24.147Z,11.97
2022-08-25T22:06:31.833Z,12.37
2022-08-25T22:11:39.007Z,11.63
2022-08-25T22:16:42.388Z,13.30
2022-08-25T22:21:44.825Z,12.70
2022-08-25T22:26:48.597Z,12.70
2022-08-25T22:31:52.830Z,11.90
2022-08-25T22:36:59.563Z,12.37
2022-08-25T22:42:03.054Z,11.63
2022-08-25T22:47:06.002Z,11.20
2022-08-25T22:52:13.027Z,11.83
2022-08-25T22:57:23.256Z,11.50
2022-08-25T23:02:26.226Z,10.63
2022-08-25T23:07:33.168Z,11.10
2022-08-25T23:12:35.469Z,11.23
2022-08-25T23:17:38.048Z,11.00
2022-08-25T23:22:45.086Z,11.50
2022-08-25T23:27:57.413Z,11.37
2022-08-25T23:33:02.082Z,11.90
2022-08-25T23:38:04.365Z,12.33
2022-08-25T23:43:09.638Z,11.50
2022-08-25T23:48:11.987Z,12.80
2022-08-25T23:53:21.725Z,11.63
2022-08-25T23:58:26.761Z,11.10
